BAW127 EHAM-EDDH
Flight info
| Callsign | BAW127 |
|---|---|
| Flight time | 0h 58m |
| Altitude | 33000 |
| Route | ANDIK M105 RIBSO RIBSO7A |
| Aircraft | A388/J-SADE2E3FGHIJ3J4J5M1RWXY/LB1D1 |
Departure
| Time | 2026-05-07 13:29 |
|---|---|
| Airport | Amsterdam Airport Schiphol (EHAM) |
Arrival
| Time | 2026-05-07 14:27 |
|---|---|
| Airport | Hamburg Helmut Schmidt Airport (EDDH) |
| Time | Latitude | Longitude | Altitude | Speed | Heading |
|---|---|---|---|---|---|
| 2026-05-07 13:00 | 52.30987 | 4.74424 | 3 ft | 0 kts | 273° |
| 2026-05-07 13:13 | 52.30987 | 4.74423 | 3 ft | 0 kts | 273° |
| 2026-05-07 13:13 | 52.30987 | 4.74418 | 3 ft | 0 kts | 273° |
| 2026-05-07 13:15 | 52.30987 | 4.74417 | 3 ft | 0 kts | 273° |
| 2026-05-07 13:16 | 52.30987 | 4.74414 | 3 ft | 2 kts | 273° |
| 2026-05-07 13:16 | 52.30988 | 4.74408 | 3 ft | 0 kts | 273° |
| 2026-05-07 13:20 | 52.30988 | 4.74398 | 2 ft | 3 kts | 273° |
| 2026-05-07 13:20 | 52.30991 | 4.74328 | 1 ft | 9 kts | 282° |
| 2026-05-07 13:20 | 52.31025 | 4.74257 | 1 ft | 8 kts | 347° |
| 2026-05-07 13:20 | 52.31073 | 4.74250 | 1 ft | 0 kts | 358° |
| 2026-05-07 13:22 | 52.31074 | 4.74250 | 1 ft | 2 kts | 358° |
| 2026-05-07 13:22 | 52.31109 | 4.74249 | 1 ft | 8 kts | 360° |
| 2026-05-07 13:22 | 52.31190 | 4.74256 | 0 ft | 14 kts | 4° |
| 2026-05-07 13:22 | 52.31290 | 4.74268 | 2 ft | 4 kts | 4° |
| 2026-05-07 13:23 | 52.31297 | 4.74269 | 3 ft | 3 kts | 4° |
| 2026-05-07 13:23 | 52.31326 | 4.74273 | 4 ft | 5 kts | 4° |
| 2026-05-07 13:23 | 52.31370 | 4.74278 | 6 ft | 6 kts | 4° |
| 2026-05-07 13:23 | 52.31433 | 4.74291 | 5 ft | 11 kts | 20° |
| 2026-05-07 13:24 | 52.31474 | 4.74396 | 5 ft | 12 kts | 81° |
| 2026-05-07 13:24 | 52.31484 | 4.74529 | 6 ft | 0 kts | 84° |
| 2026-05-07 13:25 | 52.31484 | 4.74539 | 6 ft | 4 kts | 83° |
| 2026-05-07 13:26 | 52.31500 | 4.74610 | 5 ft | 8 kts | 49° |
| 2026-05-07 13:26 | 52.31506 | 4.74620 | 5 ft | 0 kts | 36° |
| 2026-05-07 13:27 | 52.31523 | 4.74637 | 5 ft | 7 kts | 29° |
| 2026-05-07 13:27 | 52.31577 | 4.74657 | 4 ft | 10 kts | 6° |
| 2026-05-07 13:27 | 52.31648 | 4.74705 | 5 ft | 12 kts | 48° |
| 2026-05-07 13:27 | 52.31677 | 4.74853 | 2 ft | 17 kts | 83° |
| 2026-05-07 13:28 | 52.31679 | 4.74960 | 0 ft | 0 kts | 90° |
| 2026-05-07 13:28 | 52.31680 | 4.75012 | -1 ft | 29 kts | 86° |
| 2026-05-07 13:29 | 52.31714 | 4.75925 | 2 ft | 130 kts | 87° |
| 2026-05-07 13:29 | 52.31783 | 4.77738 | 282 ft | 172 kts | 86° |
| 2026-05-07 13:29 | 52.31865 | 4.79719 | 1055 ft | 178 kts | 86° |
| 2026-05-07 13:29 | 52.31943 | 4.81709 | 1947 ft | 179 kts | 86° |
| 2026-05-07 13:30 | 52.32025 | 4.83846 | 2450 ft | 194 kts | 86° |
| 2026-05-07 13:30 | 52.32113 | 4.86111 | 2711 ft | 211 kts | 86° |
| 2026-05-07 13:30 | 52.32211 | 4.88655 | 3019 ft | 236 kts | 86° |
| 2026-05-07 13:30 | 52.32318 | 4.91460 | 3511 ft | 259 kts | 86° |
| 2026-05-07 13:31 | 52.32433 | 4.94458 | 4346 ft | 267 kts | 86° |
| 2026-05-07 13:31 | 52.32471 | 4.95465 | 4671 ft | 268 kts | 86° |
| 2026-05-07 13:31 | 52.32593 | 4.98638 | 5564 ft | 274 kts | 86° |
| 2026-05-07 13:31 | 52.32711 | 5.01760 | 5903 ft | 276 kts | 86° |
| 2026-05-07 13:32 | 52.32831 | 5.04906 | 5994 ft | 278 kts | 86° |
| 2026-05-07 13:32 | 52.32950 | 5.08060 | 6002 ft | 277 kts | 86° |
| 2026-05-07 13:32 | 52.33068 | 5.11200 | 6000 ft | 277 kts | 86° |
| 2026-05-07 13:32 | 52.33186 | 5.14347 | 5998 ft | 277 kts | 86° |
| 2026-05-07 13:33 | 52.33304 | 5.17486 | 5997 ft | 276 kts | 86° |
| 2026-05-07 13:33 | 52.33419 | 5.20564 | 6002 ft | 276 kts | 86° |
| 2026-05-07 13:33 | 52.33599 | 5.23695 | 5994 ft | 276 kts | 76° |
| 2026-05-07 13:33 | 52.34432 | 5.26493 | 6000 ft | 276 kts | 49° |
| 2026-05-07 13:34 | 52.35936 | 5.28386 | 6002 ft | 274 kts | 22° |
| 2026-05-07 13:34 | 52.39696 | 5.28690 | 6438 ft | 276 kts | 352° |
| 2026-05-07 13:34 | 52.41585 | 5.28357 | 7393 ft | 276 kts | 354° |
| 2026-05-07 13:35 | 52.43531 | 5.28119 | 8351 ft | 279 kts | 356° |
| 2026-05-07 13:35 | 52.45467 | 5.27977 | 9242 ft | 283 kts | 357° |
| 2026-05-07 13:35 | 52.47452 | 5.27889 | 10124 ft | 287 kts | 358° |
| 2026-05-07 13:35 | 52.49503 | 5.27820 | 10626 ft | 306 kts | 358° |
| 2026-05-07 13:36 | 52.51709 | 5.27752 | 10886 ft | 329 kts | 358° |
| 2026-05-07 13:36 | 52.54048 | 5.27681 | 11390 ft | 340 kts | 358° |
| 2026-05-07 13:36 | 52.56428 | 5.27609 | 12152 ft | 344 kts | 358° |
| 2026-05-07 13:36 | 52.58838 | 5.27534 | 12736 ft | 349 kts | 358° |
| 2026-05-07 13:37 | 52.61271 | 5.27457 | 12954 ft | 350 kts | 358° |
| 2026-05-07 13:37 | 52.63711 | 5.27379 | 13001 ft | 351 kts | 358° |
| 2026-05-07 13:37 | 52.66154 | 5.27300 | 13000 ft | 350 kts | 358° |
| 2026-05-07 13:37 | 52.68529 | 5.27224 | 13001 ft | 350 kts | 358° |
| 2026-05-07 13:38 | 52.70949 | 5.27515 | 13003 ft | 351 kts | 13° |
| 2026-05-07 13:38 | 52.73168 | 5.29181 | 13150 ft | 355 kts | 35° |
| 2026-05-07 13:38 | 52.74872 | 5.32142 | 13757 ft | 358 kts | 57° |
| 2026-05-07 13:38 | 52.75885 | 5.35885 | 14527 ft | 360 kts | 70° |
| 2026-05-07 13:39 | 52.76710 | 5.39812 | 15183 ft | 364 kts | 70° |
| 2026-05-07 13:39 | 52.77559 | 5.43777 | 15867 ft | 368 kts | 70° |
| 2026-05-07 13:39 | 52.78412 | 5.47735 | 16510 ft | 371 kts | 70° |
| 2026-05-07 13:39 | 52.79282 | 5.51775 | 17159 ft | 375 kts | 70° |
| 2026-05-07 13:40 | 52.80148 | 5.55809 | 17755 ft | 378 kts | 70° |
| 2026-05-07 13:40 | 52.81029 | 5.59923 | 18359 ft | 382 kts | 70° |
| 2026-05-07 13:40 | 52.81916 | 5.64077 | 18940 ft | 385 kts | 70° |
| 2026-05-07 13:40 | 52.82810 | 5.68269 | 19522 ft | 388 kts | 70° |
| 2026-05-07 13:41 | 52.83711 | 5.72506 | 20056 ft | 392 kts | 70° |
| 2026-05-07 13:41 | 52.84616 | 5.76774 | 20597 ft | 395 kts | 70° |
| 2026-05-07 13:41 | 52.85529 | 5.81081 | 21113 ft | 398 kts | 70° |
| 2026-05-07 13:41 | 52.86445 | 5.85418 | 21638 ft | 401 kts | 70° |
| 2026-05-07 13:42 | 52.87369 | 5.89801 | 22139 ft | 404 kts | 70° |
| 2026-05-07 13:42 | 52.88297 | 5.94212 | 22625 ft | 407 kts | 70° |
| 2026-05-07 13:42 | 52.89232 | 5.98666 | 23108 ft | 410 kts | 71° |
| 2026-05-07 13:42 | 52.90170 | 6.03143 | 23579 ft | 413 kts | 71° |
| 2026-05-07 13:43 | 52.91112 | 6.07654 | 24048 ft | 416 kts | 71° |
| 2026-05-07 13:43 | 52.92062 | 6.12210 | 24517 ft | 419 kts | 71° |
| 2026-05-07 13:43 | 52.93017 | 6.16799 | 24967 ft | 422 kts | 71° |
| 2026-05-07 13:43 | 52.93979 | 6.21433 | 25438 ft | 425 kts | 71° |
| 2026-05-07 13:44 | 52.94943 | 6.26088 | 25915 ft | 428 kts | 71° |
| 2026-05-07 13:44 | 52.95912 | 6.30776 | 26390 ft | 432 kts | 71° |
| 2026-05-07 13:44 | 52.96836 | 6.35262 | 26864 ft | 435 kts | 71° |
| 2026-05-07 13:44 | 52.97815 | 6.40020 | 27359 ft | 438 kts | 71° |
| 2026-05-07 13:45 | 52.98800 | 6.44825 | 27863 ft | 441 kts | 71° |
| 2026-05-07 13:45 | 52.99780 | 6.49615 | 28352 ft | 445 kts | 71° |
| 2026-05-07 13:45 | 53.00777 | 6.54494 | 28840 ft | 448 kts | 71° |
| 2026-05-07 13:45 | 53.01441 | 6.57758 | 29166 ft | 450 kts | 71° |
| 2026-05-07 13:46 | 53.02446 | 6.62697 | 29650 ft | 454 kts | 71° |
| 2026-05-07 13:46 | 53.03456 | 6.67681 | 30133 ft | 457 kts | 71° |
| 2026-05-07 13:46 | 53.04473 | 6.72707 | 30596 ft | 461 kts | 71° |
| 2026-05-07 13:46 | 53.05496 | 6.77776 | 31094 ft | 464 kts | 71° |
| 2026-05-07 13:47 | 53.06523 | 6.82878 | 31546 ft | 467 kts | 71° |
| 2026-05-07 13:47 | 53.07556 | 6.88028 | 31902 ft | 472 kts | 71° |
| 2026-05-07 13:47 | 53.08594 | 6.93211 | 32003 ft | 472 kts | 71° |
| 2026-05-07 13:48 | 53.10660 | 7.03573 | 32000 ft | 471 kts | 71° |
| 2026-05-07 13:48 | 53.12715 | 7.13935 | 32000 ft | 471 kts | 71° |
| 2026-05-07 13:49 | 53.14761 | 7.24297 | 32000 ft | 471 kts | 72° |
| 2026-05-07 13:49 | 53.16778 | 7.34598 | 32000 ft | 471 kts | 72° |
| 2026-05-07 13:50 | 53.18802 | 7.44982 | 32000 ft | 471 kts | 72° |
| 2026-05-07 13:50 | 53.20816 | 7.55373 | 32000 ft | 471 kts | 72° |
| 2026-05-07 13:51 | 53.22791 | 7.65614 | 32001 ft | 471 kts | 72° |
| 2026-05-07 13:51 | 53.24712 | 7.76063 | 32001 ft | 471 kts | 78° |
| 2026-05-07 13:52 | 53.25574 | 7.86889 | 31839 ft | 468 kts | 83° |
| 2026-05-07 13:52 | 53.25966 | 7.92298 | 31121 ft | 469 kts | 83° |
| 2026-05-07 13:52 | 53.26349 | 7.97738 | 30115 ft | 474 kts | 83° |
| 2026-05-07 13:52 | 53.26722 | 8.03232 | 29182 ft | 476 kts | 83° |
| 2026-05-07 13:53 | 53.27085 | 8.08704 | 28485 ft | 471 kts | 84° |
| 2026-05-07 13:53 | 53.27439 | 8.14124 | 27807 ft | 466 kts | 84° |
| 2026-05-07 13:53 | 53.27777 | 8.19343 | 27131 ft | 462 kts | 84° |
| 2026-05-07 13:53 | 53.28117 | 8.24631 | 26446 ft | 457 kts | 84° |
| 2026-05-07 13:54 | 53.28449 | 8.29828 | 25761 ft | 452 kts | 84° |
| 2026-05-07 13:54 | 53.28778 | 8.35027 | 25069 ft | 447 kts | 84° |
| 2026-05-07 13:54 | 53.29102 | 8.40168 | 24382 ft | 443 kts | 84° |
| 2026-05-07 13:54 | 53.29421 | 8.45257 | 23686 ft | 438 kts | 84° |
| 2026-05-07 13:55 | 53.29735 | 8.50308 | 22992 ft | 434 kts | 84° |
| 2026-05-07 13:55 | 53.30042 | 8.55289 | 22301 ft | 429 kts | 84° |
| 2026-05-07 13:55 | 53.30345 | 8.60230 | 21616 ft | 425 kts | 84° |
| 2026-05-07 13:55 | 53.30637 | 8.65032 | 20932 ft | 421 kts | 84° |
| 2026-05-07 13:56 | 53.30930 | 8.69880 | 20244 ft | 416 kts | 84° |
| 2026-05-07 13:56 | 53.31218 | 8.74676 | 19556 ft | 412 kts | 84° |
| 2026-05-07 13:56 | 53.31501 | 8.79421 | 18873 ft | 408 kts | 84° |
| 2026-05-07 13:56 | 53.31779 | 8.84111 | 18199 ft | 404 kts | 84° |
| 2026-05-07 13:57 | 53.32053 | 8.88770 | 17522 ft | 400 kts | 84° |
| 2026-05-07 13:57 | 53.32323 | 8.93381 | 16855 ft | 396 kts | 84° |
| 2026-05-07 13:57 | 53.32588 | 8.97944 | 16169 ft | 392 kts | 84° |
| 2026-05-07 13:57 | 53.32839 | 9.02297 | 15524 ft | 388 kts | 84° |
| 2026-05-07 13:58 | 53.33095 | 9.06772 | 14842 ft | 385 kts | 84° |
| 2026-05-07 13:58 | 53.33344 | 9.11144 | 14193 ft | 381 kts | 84° |
| 2026-05-07 13:58 | 53.33590 | 9.15494 | 13524 ft | 377 kts | 84° |
| 2026-05-07 13:58 | 53.33833 | 9.19824 | 13120 ft | 367 kts | 84° |
| 2026-05-07 13:59 | 53.34065 | 9.23982 | 13006 ft | 354 kts | 84° |
| 2026-05-07 13:59 | 53.34292 | 9.28066 | 13000 ft | 352 kts | 84° |
| 2026-05-07 13:59 | 53.34517 | 9.32143 | 13001 ft | 352 kts | 84° |
| 2026-05-07 13:59 | 53.34740 | 9.36219 | 13001 ft | 352 kts | 84° |
| 2026-05-07 14:00 | 53.35034 | 9.40288 | 12998 ft | 352 kts | 77° |
| 2026-05-07 14:00 | 53.35896 | 9.44099 | 13000 ft | 352 kts | 60° |
| 2026-05-07 14:00 | 53.37336 | 9.47396 | 13006 ft | 351 kts | 49° |
| 2026-05-07 14:00 | 53.38940 | 9.50488 | 12999 ft | 351 kts | 49° |
| 2026-05-07 14:01 | 53.40502 | 9.53573 | 13000 ft | 351 kts | 49° |
| 2026-05-07 14:01 | 53.42093 | 9.56742 | 12993 ft | 351 kts | 50° |
| 2026-05-07 14:01 | 53.43640 | 9.59834 | 12653 ft | 350 kts | 50° |
| 2026-05-07 14:01 | 53.45218 | 9.62985 | 11938 ft | 354 kts | 49° |
| 2026-05-07 14:02 | 53.46823 | 9.66187 | 10992 ft | 361 kts | 49° |
| 2026-05-07 14:02 | 53.48437 | 9.69408 | 10275 ft | 359 kts | 50° |
| 2026-05-07 14:02 | 53.49982 | 9.72503 | 9698 ft | 355 kts | 50° |
| 2026-05-07 14:02 | 53.51527 | 9.75609 | 9501 ft | 338 kts | 50° |
| 2026-05-07 14:03 | 53.52661 | 9.77893 | 9394 ft | 326 kts | 50° |
| 2026-05-07 14:03 | 53.54114 | 9.80813 | 9231 ft | 311 kts | 50° |
| 2026-05-07 14:03 | 53.55470 | 9.83540 | 9120 ft | 297 kts | 50° |
| 2026-05-07 14:03 | 53.56769 | 9.86151 | 9002 ft | 285 kts | 50° |
| 2026-05-07 14:04 | 53.58008 | 9.88656 | 8885 ft | 273 kts | 52° |
| 2026-05-07 14:04 | 53.58823 | 9.91452 | 8786 ft | 262 kts | 78° |
| 2026-05-07 14:04 | 53.58788 | 9.94333 | 8702 ft | 252 kts | 106° |
| 2026-05-07 14:04 | 53.58197 | 9.96345 | 8636 ft | 243 kts | 130° |
| 2026-05-07 14:05 | 53.56923 | 9.97986 | 8542 ft | 231 kts | 160° |
| 2026-05-07 14:05 | 53.55392 | 9.98275 | 8443 ft | 219 kts | 192° |
| 2026-05-07 14:05 | 53.54128 | 9.97297 | 8229 ft | 216 kts | 223° |
| 2026-05-07 14:05 | 53.53309 | 9.95225 | 7988 ft | 214 kts | 251° |
| 2026-05-07 14:06 | 53.52869 | 9.92837 | 7733 ft | 214 kts | 248° |
| 2026-05-07 14:06 | 53.52160 | 9.90677 | 7482 ft | 215 kts | 236° |
| 2026-05-07 14:06 | 53.51267 | 9.88706 | 7240 ft | 216 kts | 231° |
| 2026-05-07 14:06 | 53.50292 | 9.86771 | 6982 ft | 217 kts | 230° |
| 2026-05-07 14:07 | 53.49330 | 9.84855 | 6860 ft | 211 kts | 237° |
| 2026-05-07 14:07 | 53.48854 | 9.82565 | 6621 ft | 210 kts | 270° |
| 2026-05-07 14:07 | 53.49218 | 9.80236 | 6392 ft | 210 kts | 302° |
| 2026-05-07 14:07 | 53.50268 | 9.78566 | 6137 ft | 211 kts | 332° |
| 2026-05-07 14:08 | 53.51708 | 9.78014 | 5716 ft | 221 kts | 3° |
| 2026-05-07 14:08 | 53.53184 | 9.78863 | 5230 ft | 233 kts | 35° |
| 2026-05-07 14:08 | 53.54332 | 9.80856 | 4754 ft | 243 kts | 51° |
| 2026-05-07 14:08 | 53.55363 | 9.83181 | 4241 ft | 252 kts | 52° |
| 2026-05-07 14:09 | 53.56458 | 9.85518 | 3746 ft | 259 kts | 50° |
| 2026-05-07 14:09 | 53.57633 | 9.87870 | 3248 ft | 265 kts | 51° |
| 2026-05-07 14:09 | 53.58824 | 9.90231 | 2977 ft | 259 kts | 49° |
| 2026-05-07 14:09 | 53.59885 | 9.92584 | 2924 ft | 245 kts | 48° |
| 2026-05-07 14:10 | 53.61038 | 9.94561 | 2922 ft | 231 kts | 50° |
| 2026-05-07 14:10 | 53.61999 | 9.97008 | 2938 ft | 278 kts | 54° |
| 2026-05-07 14:10 | 53.63349 | 9.99666 | 3202 ft | 311 kts | 46° |
| 2026-05-07 14:10 | 53.64842 | 10.02456 | 3808 ft | 330 kts | 49° |
| 2026-05-07 14:11 | 53.66344 | 10.05478 | 4359 ft | 337 kts | 50° |
| 2026-05-07 14:11 | 53.67701 | 10.08487 | 4772 ft | 310 kts | 55° |
| 2026-05-07 14:11 | 53.68620 | 10.10997 | 5039 ft | 295 kts | 61° |
| 2026-05-07 14:11 | 53.69420 | 10.13854 | 5313 ft | 267 kts | 68° |
| 2026-05-07 14:12 | 53.69949 | 10.16668 | 5529 ft | 249 kts | 76° |
| 2026-05-07 14:12 | 53.70240 | 10.19731 | 5818 ft | 269 kts | 85° |
| 2026-05-07 14:12 | 53.70277 | 10.22934 | 6107 ft | 276 kts | 93° |
| 2026-05-07 14:12 | 53.70056 | 10.26162 | 6407 ft | 278 kts | 101° |
| 2026-05-07 14:13 | 53.69583 | 10.29322 | 6699 ft | 279 kts | 108° |
| 2026-05-07 14:13 | 53.68861 | 10.32370 | 6989 ft | 280 kts | 116° |
| 2026-05-07 14:13 | 53.67921 | 10.35192 | 7258 ft | 278 kts | 124° |
| 2026-05-07 14:13 | 53.66590 | 10.37430 | 7225 ft | 276 kts | 149° |
| 2026-05-07 14:14 | 53.64795 | 10.38503 | 6984 ft | 277 kts | 175° |
| 2026-05-07 14:14 | 53.62914 | 10.38140 | 6666 ft | 273 kts | 201° |
| 2026-05-07 14:14 | 53.61344 | 10.36428 | 6259 ft | 270 kts | 227° |
| 2026-05-07 14:14 | 53.60413 | 10.33721 | 5889 ft | 268 kts | 254° |
| 2026-05-07 14:15 | 53.60315 | 10.30627 | 5510 ft | 266 kts | 278° |
| 2026-05-07 14:15 | 53.60651 | 10.27568 | 5123 ft | 265 kts | 278° |
| 2026-05-07 14:15 | 53.60706 | 10.24488 | 4742 ft | 264 kts | 264° |
| 2026-05-07 14:15 | 53.60333 | 10.21473 | 4381 ft | 262 kts | 252° |
| 2026-05-07 14:16 | 53.59675 | 10.18627 | 4022 ft | 261 kts | 246° |
| 2026-05-07 14:16 | 53.58931 | 10.15847 | 3666 ft | 260 kts | 246° |
| 2026-05-07 14:16 | 53.58180 | 10.13092 | 3309 ft | 258 kts | 245° |
| 2026-05-07 14:16 | 53.57433 | 10.10349 | 3009 ft | 258 kts | 246° |
| 2026-05-07 14:17 | 53.56688 | 10.07604 | 2926 ft | 256 kts | 246° |
| 2026-05-07 14:17 | 53.55949 | 10.04878 | 2927 ft | 257 kts | 246° |
| 2026-05-07 14:17 | 53.55209 | 10.02143 | 2927 ft | 257 kts | 246° |
| 2026-05-07 14:17 | 53.54467 | 9.99405 | 2925 ft | 257 kts | 246° |
| 2026-05-07 14:18 | 53.53763 | 9.96808 | 2925 ft | 257 kts | 246° |
| 2026-05-07 14:18 | 53.52981 | 9.94369 | 2923 ft | 258 kts | 235° |
| 2026-05-07 14:18 | 53.51852 | 9.91975 | 2923 ft | 258 kts | 232° |
| 2026-05-07 14:18 | 53.50883 | 9.89930 | 2925 ft | 258 kts | 232° |
| 2026-05-07 14:19 | 53.49739 | 9.87518 | 2930 ft | 258 kts | 232° |
| 2026-05-07 14:19 | 53.48620 | 9.85162 | 2923 ft | 258 kts | 232° |
| 2026-05-07 14:19 | 53.47502 | 9.82807 | 2922 ft | 258 kts | 232° |
| 2026-05-07 14:19 | 53.46382 | 9.80447 | 2922 ft | 258 kts | 232° |
| 2026-05-07 14:20 | 53.45267 | 9.78102 | 2922 ft | 258 kts | 232° |
| 2026-05-07 14:20 | 53.44147 | 9.75749 | 2923 ft | 258 kts | 232° |
| 2026-05-07 14:20 | 53.43027 | 9.73395 | 2924 ft | 258 kts | 232° |
| 2026-05-07 14:20 | 53.41909 | 9.71043 | 2928 ft | 258 kts | 231° |
| 2026-05-07 14:21 | 53.40737 | 9.68820 | 2925 ft | 258 kts | 226° |
| 2026-05-07 14:21 | 53.39473 | 9.66685 | 2925 ft | 258 kts | 226° |
| 2026-05-07 14:21 | 53.38322 | 9.64554 | 2920 ft | 257 kts | 238° |
| 2026-05-07 14:21 | 53.37735 | 9.61749 | 2932 ft | 257 kts | 265° |
| 2026-05-07 14:22 | 53.38013 | 9.58818 | 2926 ft | 257 kts | 294° |
| 2026-05-07 14:22 | 53.39128 | 9.56518 | 2924 ft | 259 kts | 326° |
| 2026-05-07 14:22 | 53.40833 | 9.55670 | 2923 ft | 261 kts | 1° |
| 2026-05-07 14:22 | 53.42546 | 9.56600 | 2923 ft | 263 kts | 36° |
| 2026-05-07 14:23 | 53.43704 | 9.58941 | 2931 ft | 264 kts | 59° |
| 2026-05-07 14:23 | 53.44676 | 9.61576 | 2924 ft | 265 kts | 54° |
| 2026-05-07 14:23 | 53.45792 | 9.64025 | 2920 ft | 264 kts | 50° |
| 2026-05-07 14:23 | 53.46978 | 9.66370 | 2922 ft | 264 kts | 50° |
| 2026-05-07 14:24 | 53.48149 | 9.68752 | 2923 ft | 264 kts | 50° |
| 2026-05-07 14:24 | 53.49320 | 9.71098 | 2923 ft | 264 kts | 50° |
| 2026-05-07 14:24 | 53.50468 | 9.73417 | 2932 ft | 262 kts | 49° |
| 2026-05-07 14:24 | 53.51617 | 9.75730 | 2924 ft | 264 kts | 50° |
| 2026-05-07 14:25 | 53.52750 | 9.78019 | 2870 ft | 257 kts | 50° |
| 2026-05-07 14:25 | 53.53876 | 9.80290 | 2509 ft | 253 kts | 50° |
| 2026-05-07 14:25 | 53.54996 | 9.82547 | 2184 ft | 249 kts | 49° |
| 2026-05-07 14:25 | 53.56097 | 9.84776 | 1853 ft | 246 kts | 50° |
| 2026-05-07 14:26 | 53.57172 | 9.86945 | 1520 ft | 236 kts | 50° |
| 2026-05-07 14:26 | 53.58194 | 9.89012 | 1224 ft | 224 kts | 49° |
| 2026-05-07 14:26 | 53.59173 | 9.90993 | 917 ft | 217 kts | 50° |
| 2026-05-07 14:26 | 53.60104 | 9.92879 | 650 ft | 210 kts | 49° |
| 2026-05-07 14:27 | 53.60683 | 9.94047 | 473 ft | 207 kts | 50° |
| 2026-05-07 14:27 | 53.61574 | 9.95863 | 222 ft | 200 kts | 46° |
| 2026-05-07 14:27 | 53.62424 | 9.97538 | 50 ft | 153 kts | 53° |
| 2026-05-07 14:27 | 53.62779 | 9.98313 | 52 ft | 45 kts | 51° |
| 2026-05-07 14:28 | 53.62893 | 9.98551 | 46 ft | 37 kts | 51° |